createdAt,value
2024-03-03T00:00:13.591Z,9.58
2024-03-03T00:01:13.789Z,9.59
2024-03-03T00:02:13.986Z,9.59
2024-03-03T00:03:14.104Z,9.63
2024-03-03T00:04:14.293Z,9.63
2024-03-03T00:05:14.420Z,9.59
2024-03-03T00:06:14.544Z,9.67
2024-03-03T00:07:14.749Z,9.64
2024-03-03T00:08:14.828Z,9.63
2024-03-03T00:09:14.956Z,9.63
2024-03-03T00:10:15.207Z,9.67
2024-03-03T00:11:15.345Z,9.69
2024-03-03T00:12:15.462Z,9.70
2024-03-03T00:13:15.717Z,9.69
2024-03-03T00:14:15.716Z,9.70
2024-03-03T00:15:15.870Z,9.67
2024-03-03T00:16:16.069Z,9.67
2024-03-03T00:17:16.158Z,9.67
2024-03-03T00:18:16.362Z,9.69
2024-03-03T00:19:16.516Z,9.70
2024-03-03T00:20:16.667Z,9.70
2024-03-03T00:21:16.814Z,9.69
2024-03-03T00:22:17.006Z,9.72
2024-03-03T00:23:17.175Z,9.69
2024-03-03T00:24:17.318Z,9.72
2024-03-03T00:25:17.516Z,9.72
2024-03-03T00:26:17.613Z,9.69
2024-03-03T00:27:17.806Z,9.69
2024-03-03T00:28:18.047Z,9.63
2024-03-03T00:29:18.081Z,9.64
2024-03-03T00:30:18.235Z,9.66
2024-03-03T00:31:18.370Z,9.64
2024-03-03T00:32:18.515Z,9.70
2024-03-03T00:33:18.727Z,9.73
2024-03-03T00:34:18.944Z,9.76
2024-03-03T00:35:19.007Z,9.74
2024-03-03T00:36:19.165Z,9.73
2024-03-03T00:37:19.373Z,9.70
2024-03-03T00:38:19.419Z,9.66
2024-03-03T00:39:19.558Z,9.67
2024-03-03T00:40:19.946Z,9.67
2024-03-03T00:41:19.873Z,9.63
2024-03-03T00:42:20.021Z,9.62
2024-03-03T00:43:20.223Z,9.58
2024-03-03T00:44:20.259Z,9.54
2024-03-03T00:45:20.413Z,9.52
2024-03-03T00:46:20.587Z,9.52
2024-03-03T00:47:20.757Z,9.62
2024-03-03T00:48:20.916Z,9.70
2024-03-03T00:49:21.143Z,9.76
2024-03-03T00:50:21.135Z,9.76
2024-03-03T00:51:21.287Z,9.73
2024-03-03T00:52:21.484Z,9.76
2024-03-03T00:53:21.613Z,9.73
2024-03-03T00:54:21.804Z,9.73
2024-03-03T00:55:22.010Z,9.74
2024-03-03T00:56:22.051Z,9.80
2024-03-03T00:57:22.207Z,9.80
2024-03-03T00:58:22.459Z,9.73
2024-03-03T00:59:22.508Z,9.74
2024-03-03T01:00:22.662Z,9.82
2024-03-03T01:01:22.840Z,9.87
2024-03-03T01:02:23.027Z,9.87
2024-03-03T01:03:23.040Z,9.84
2024-03-03T01:04:23.210Z,9.82
2024-03-03T01:05:23.326Z,9.81
2024-03-03T01:06:23.516Z,9.77
2024-03-03T01:07:23.663Z,9.77
2024-03-03T01:08:23.809Z,9.80
2024-03-03T01:09:24.004Z,9.76
2024-03-03T01:10:24.171Z,9.77
2024-03-03T01:11:24.336Z,9.77
2024-03-03T01:12:24.467Z,9.74
2024-03-03T01:13:24.691Z,9.72
2024-03-03T01:14:24.799Z,9.72
2024-03-03T01:15:24.972Z,9.67
2024-03-03T01:16:25.059Z,9.64
2024-03-03T01:17:25.228Z,9.62
2024-03-03T01:18:25.384Z,9.56
2024-03-03T01:19:25.653Z,9.52
2024-03-03T01:20:25.674Z,9.49
2024-03-03T01:21:25.819Z,9.47
2024-03-03T01:22:26.048Z,9.47
2024-03-03T01:23:26.176Z,9.47
2024-03-03T01:24:26.318Z,9.47
2024-03-03T01:25:26.506Z,9.47
2024-03-03T01:26:26.623Z,9.42
2024-03-03T01:27:26.800Z,9.39
2024-03-03T01:28:26.972Z,9.34
2024-03-03T01:29:27.090Z,9.34
2024-03-03T01:30:27.260Z,9.39
2024-03-03T01:31:27.402Z,9.37
2024-03-03T01:32:27.563Z,9.34
2024-03-03T01:33:27.693Z,9.33
2024-03-03T01:34:27.907Z,9.30
2024-03-03T01:35:28.033Z,9.30
2024-03-03T01:36:28.197Z,9.31
2024-03-03T01:37:28.337Z,9.29
2024-03-03T01:38:28.490Z,9.30
2024-03-03T01:39:28.640Z,9.27
2024-03-03T01:40:28.836Z,9.26
2024-03-03T01:41:28.969Z,9.22
2024-03-03T01:42:29.130Z,9.21
2024-03-03T01:43:29.268Z,9.18
2024-03-03T01:44:29.402Z,9.18
2024-03-03T01:45:29.562Z,9.18
2024-03-03T01:46:29.706Z,9.13
2024-03-03T01:47:29.910Z,9.11
2024-03-03T01:48:30.055Z,9.11
2024-03-03T01:49:30.202Z,9.11
2024-03-03T01:50:30.342Z,9.09
2024-03-03T01:51:30.502Z,9.08
2024-03-03T01:52:30.703Z,9.08
2024-03-03T01:53:30.846Z,9.05
2024-03-03T01:54:31.030Z,9.03
2024-03-03T01:55:31.148Z,9.02
2024-03-03T01:56:31.306Z,9.00
2024-03-03T01:57:31.463Z,8.99
2024-03-03T01:58:31.607Z,8.97
2024-03-03T01:59:31.763Z,8.95
2024-03-03T02:00:31.918Z,8.93
2024-03-03T02:01:32.153Z,8.93
2024-03-03T02:02:32.185Z,8.93
2024-03-03T02:03:32.354Z,8.93
2024-03-03T02:04:32.504Z,8.92
2024-03-03T02:05:32.690Z,8.92
2024-03-03T02:06:32.832Z,8.92
2024-03-03T02:07:33.010Z,8.90
2024-03-03T02:08:33.172Z,8.87
2024-03-03T02:09:33.323Z,8.81
2024-03-03T02:10:33.447Z,8.79
2024-03-03T02:11:33.646Z,8.84
2024-03-03T02:12:33.789Z,8.81
2024-03-03T02:13:33.972Z,8.82
2024-03-03T02:14:34.132Z,8.79
2024-03-03T02:15:34.315Z,8.81
2024-03-03T02:16:34.365Z,8.78
2024-03-03T02:17:34.560Z,8.79
2024-03-03T02:18:34.653Z,8.81
2024-03-03T02:19:34.893Z,8.81
2024-03-03T02:20:34.904Z,8.84
2024-03-03T02:21:35.064Z,8.86
2024-03-03T02:22:35.229Z,8.86
2024-03-03T02:23:35.350Z,8.82
2024-03-03T02:24:35.502Z,8.77
2024-03-03T02:25:35.655Z,8.77
2024-03-03T02:26:35.816Z,8.74
2024-03-03T02:27:35.954Z,8.74
2024-03-03T02:28:36.119Z,8.74
2024-03-03T02:29:36.295Z,8.72
2024-03-03T02:30:36.618Z,8.69
2024-03-03T02:31:36.648Z,8.71
2024-03-03T02:32:36.845Z,8.71
2024-03-03T02:33:37.001Z,8.69
2024-03-03T02:34:37.145Z,8.72
2024-03-03T02:35:37.355Z,8.69
2024-03-03T02:36:37.621Z,8.69
2024-03-03T02:37:37.650Z,8.69
2024-03-03T02:38:37.822Z,8.68
2024-03-03T02:39:38.055Z,8.66
2024-03-03T02:40:38.193Z,8.68
2024-03-03T02:41:38.345Z,8.69
2024-03-03T02:42:38.543Z,8.68
2024-03-03T02:43:38.688Z,8.61
2024-03-03T02:44:38.844Z,8.64
2024-03-03T02:45:39.142Z,8.68
2024-03-03T02:46:39.197Z,8.68
2024-03-03T02:47:39.388Z,8.64
2024-03-03T02:48:39.553Z,8.64
2024-03-03T02:49:39.709Z,8.64
2024-03-03T02:50:39.862Z,8.68
2024-03-03T02:51:40.056Z,8.72
2024-03-03T02:52:40.205Z,8.77
2024-03-03T02:53:40.392Z,8.86
2024-03-03T02:54:40.625Z,8.89
2024-03-03T02:55:40.734Z,8.86
2024-03-03T02:56:40.893Z,8.84
2024-03-03T02:57:43.417Z,8.86
2024-03-03T02:58:41.171Z,8.84
2024-03-03T02:59:41.330Z,8.81
2024-03-03T03:00:41.549Z,8.79
2024-03-03T03:01:41.733Z,8.77
2024-03-03T03:02:41.798Z,8.74
2024-03-03T03:03:41.971Z,8.75
2024-03-03T03:04:42.096Z,8.72
2024-03-03T03:05:42.272Z,8.69
2024-03-03T03:06:42.471Z,8.66
2024-03-03T03:07:42.626Z,8.63
2024-03-03T03:08:42.793Z,8.61
2024-03-03T03:09:43.015Z,8.60
2024-03-03T03:10:43.046Z,8.60
2024-03-03T03:11:43.208Z,8.60
2024-03-03T03:12:43.434Z,8.56
2024-03-03T03:13:43.573Z,8.57
2024-03-03T03:14:43.710Z,8.56
2024-03-03T03:15:43.883Z,8.53
2024-03-03T03:16:44.057Z,8.46
2024-03-03T03:17:44.255Z,8.45
2024-03-03T03:18:44.444Z,8.44
2024-03-03T03:19:44.587Z,8.42
2024-03-03T03:20:44.776Z,8.41
2024-03-03T03:21:44.946Z,8.44
2024-03-03T03:22:45.122Z,8.44
2024-03-03T03:23:45.277Z,8.42
2024-03-03T03:24:45.499Z,8.44
2024-03-03T03:25:45.563Z,8.42
2024-03-03T03:26:45.765Z,8.42
2024-03-03T03:27:45.958Z,8.41
2024-03-03T03:28:46.109Z,8.45
2024-03-03T03:29:46.277Z,8.44
2024-03-03T03:30:46.492Z,8.45
2024-03-03T03:31:46.618Z,8.49
2024-03-03T03:32:46.822Z,8.46
2024-03-03T03:33:46.988Z,8.46
2024-03-03T03:34:47.140Z,8.46
2024-03-03T03:35:47.321Z,8.46
2024-03-03T03:36:47.598Z,8.53
2024-03-03T03:37:47.685Z,8.54
2024-03-03T03:38:47.759Z,8.54
2024-03-03T03:39:47.931Z,8.54
2024-03-03T03:40:48.097Z,8.54
2024-03-03T03:41:48.357Z,8.54
2024-03-03T03:42:48.406Z,8.56
2024-03-03T03:43:48.547Z,8.54
2024-03-03T03:44:48.722Z,8.54
2024-03-03T03:45:50.714Z,8.54
2024-03-03T03:46:48.988Z,8.54
2024-03-03T03:47:49.187Z,8.53
2024-03-03T03:48:49.376Z,8.54
2024-03-03T03:49:49.517Z,8.54
2024-03-03T03:50:49.695Z,8.57
2024-03-03T03:51:49.873Z,8.56
2024-03-03T03:52:50.057Z,8.59
2024-03-03T03:53:50.222Z,8.59
2024-03-03T03:54:50.427Z,8.57
2024-03-03T03:55:50.563Z,8.56
2024-03-03T03:56:50.722Z,8.54
2024-03-03T03:57:50.880Z,8.53
2024-03-03T03:58:51.025Z,8.53
2024-03-03T03:59:51.189Z,8.52
2024-03-03T04:00:51.413Z,8.49
2024-03-03T04:01:51.587Z,8.46
2024-03-03T04:02:51.611Z,8.45
2024-03-03T04:03:51.800Z,8.42
2024-03-03T04:04:51.950Z,8.39
2024-03-03T04:05:52.107Z,8.36
2024-03-03T04:06:52.275Z,8.35
2024-03-03T04:07:52.432Z,8.31
2024-03-03T04:08:52.560Z,8.27
2024-03-03T04:09:52.764Z,8.26
2024-03-03T04:10:52.929Z,8.24
2024-03-03T04:11:53.065Z,8.26
2024-03-03T04:12:53.331Z,8.23
2024-03-03T04:13:53.368Z,8.26
2024-03-03T04:14:53.558Z,8.26
2024-03-03T04:15:53.720Z,8.26
2024-03-03T04:16:53.891Z,8.27
2024-03-03T04:17:54.085Z,8.26
2024-03-03T04:18:54.247Z,8.23
2024-03-03T04:19:54.415Z,8.23
2024-03-03T04:20:54.604Z,8.18
2024-03-03T04:21:54.744Z,8.18
2024-03-03T04:22:54.896Z,8.21
2024-03-03T04:23:55.074Z,8.23
2024-03-03T04:24:55.250Z,8.26
2024-03-03T04:25:55.393Z,8.27
2024-03-03T04:26:55.612Z,8.27
2024-03-03T04:27:55.720Z,8.27
2024-03-03T04:28:55.842Z,8.26
2024-03-03T04:29:55.996Z,8.26
2024-03-03T04:30:56.175Z,8.27
2024-03-03T04:31:56.413Z,8.27
2024-03-03T04:32:56.514Z,8.27
2024-03-03T04:33:56.651Z,8.32
2024-03-03T04:34:56.815Z,8.34
2024-03-03T04:35:56.957Z,8.34
2024-03-03T04:36:57.170Z,8.34
2024-03-03T04:37:57.324Z,8.34
2024-03-03T04:38:57.491Z,8.35
2024-03-03T04:39:57.709Z,8.35
2024-03-03T04:40:57.846Z,8.36
2024-03-03T04:41:57.984Z,8.36
2024-03-03T04:42:58.204Z,8.36
2024-03-03T04:43:58.335Z,8.36
2024-03-03T04:44:58.510Z,8.39
2024-03-03T04:45:58.855Z,8.39
2024-03-03T04:46:58.796Z,8.39
2024-03-03T04:47:59.039Z,8.39
2024-03-03T04:48:59.098Z,8.38
2024-03-03T04:49:59.229Z,8.38
2024-03-03T04:50:59.380Z,8.36
2024-03-03T04:51:59.597Z,8.36
2024-03-03T04:52:59.758Z,8.36
2024-03-03T04:53:59.949Z,8.36
2024-03-03T04:55:00.124Z,8.36
2024-03-03T04:56:00.238Z,8.41
2024-03-03T04:57:00.406Z,8.41
2024-03-03T04:58:00.610Z,8.41
2024-03-03T04:59:00.753Z,8.41
2024-03-03T05:00:00.900Z,8.38
2024-03-03T05:01:01.134Z,8.35
2024-03-03T05:02:01.207Z,8.35
2024-03-03T05:03:01.330Z,8.35
2024-03-03T05:04:01.483Z,8.34
2024-03-03T05:05:01.648Z,8.35
2024-03-03T05:06:01.779Z,8.35
2024-03-03T05:07:02.014Z,8.35
2024-03-03T05:08:02.133Z,8.34
2024-03-03T05:09:02.305Z,8.34
2024-03-03T05:10:02.546Z,8.32
2024-03-03T05:11:02.708Z,8.31
2024-03-03T05:12:02.859Z,8.34
2024-03-03T05:13:03.040Z,8.31
2024-03-03T05:14:03.128Z,8.31
2024-03-03T05:15:03.303Z,8.28
2024-03-03T05:16:03.519Z,8.28
2024-03-03T05:17:03.583Z,8.27
2024-03-03T05:18:03.760Z,8.26
2024-03-03T05:19:03.950Z,8.24
2024-03-03T05:20:04.195Z,8.24
2024-03-03T05:21:04.261Z,8.23
2024-03-03T05:22:04.439Z,8.23
2024-03-03T05:23:04.587Z,8.20
2024-03-03T05:24:04.734Z,8.18
2024-03-03T05:25:04.925Z,8.18
2024-03-03T05:26:05.067Z,8.18
2024-03-03T05:27:05.247Z,8.18
2024-03-03T05:28:05.430Z,8.17
2024-03-03T05:29:05.598Z,8.21
2024-03-03T05:30:05.765Z,8.23
2024-03-03T05:31:05.981Z,8.23
2024-03-03T05:32:06.143Z,8.21
2024-03-03T05:33:06.327Z,8.26
2024-03-03T05:34:06.735Z,8.28
2024-03-03T05:35:06.641Z,8.28
2024-03-03T05:36:06.785Z,8.31
2024-03-03T05:37:07.013Z,8.34
2024-03-03T05:38:07.013Z,8.34
2024-03-03T05:39:07.173Z,8.36
2024-03-03T05:40:07.412Z,8.38
2024-03-03T05:41:07.431Z,8.38
2024-03-03T05:42:07.592Z,8.41
2024-03-03T05:43:07.833Z,8.41
2024-03-03T05:44:07.842Z,8.45
2024-03-03T05:45:08.035Z,8.49
2024-03-03T05:46:08.262Z,8.50
2024-03-03T05:47:08.281Z,8.50
2024-03-03T05:48:08.488Z,8.49
2024-03-03T05:49:08.812Z,8.52
2024-03-03T05:50:08.828Z,8.56
2024-03-03T05:51:08.954Z,8.56
2024-03-03T05:52:09.260Z,8.60
2024-03-03T05:53:09.307Z,8.63
2024-03-03T05:54:09.470Z,8.63
2024-03-03T05:55:09.829Z,8.64
2024-03-03T05:56:09.721Z,8.66
2024-03-03T05:57:09.893Z,8.68
2024-03-03T05:58:10.149Z,8.69
2024-03-03T05:59:10.193Z,8.71
2024-03-03T06:00:10.336Z,8.75
2024-03-03T06:01:10.511Z,8.74
2024-03-03T06:02:10.579Z,8.75
2024-03-03T06:03:10.710Z,8.77
2024-03-03T06:04:10.875Z,8.78
2024-03-03T06:05:11.069Z,8.81
2024-03-03T06:06:11.252Z,8.79
2024-03-03T06:07:11.351Z,8.82
2024-03-03T06:08:11.334Z,8.81
2024-03-03T06:09:11.499Z,8.81
2024-03-03T06:10:11.675Z,8.82
2024-03-03T06:11:11.844Z,8.86
2024-03-03T06:12:12.019Z,8.86
2024-03-03T06:13:12.221Z,8.84
2024-03-03T06:14:12.330Z,8.86
2024-03-03T06:15:12.520Z,8.86
2024-03-03T06:16:12.698Z,8.87
2024-03-03T06:17:12.852Z,8.89
2024-03-03T06:18:13.074Z,8.89
2024-03-03T06:19:13.250Z,8.90
2024-03-03T06:20:13.400Z,8.92
2024-03-03T06:21:13.554Z,8.92
2024-03-03T06:22:13.793Z,8.93
2024-03-03T06:23:13.919Z,8.96
2024-03-03T06:24:14.140Z,8.96
2024-03-03T06:25:14.228Z,8.96
2024-03-03T06:26:14.347Z,8.97
2024-03-03T06:27:14.533Z,8.99
2024-03-03T06:28:14.709Z,8.99
2024-03-03T06:29:14.822Z,9.03
2024-03-03T06:30:14.979Z,9.05
2024-03-03T06:31:15.139Z,9.08
2024-03-03T06:32:15.333Z,9.08
2024-03-03T06:33:15.359Z,9.12
2024-03-03T06:34:15.571Z,9.15
2024-03-03T06:35:15.690Z,9.16
2024-03-03T06:36:15.837Z,9.18
2024-03-03T06:37:16.041Z,9.22
2024-03-03T06:38:16.176Z,9.22
2024-03-03T06:39:16.329Z,9.26
2024-03-03T06:40:16.527Z,9.29
2024-03-03T06:41:16.660Z,9.31
2024-03-03T06:42:16.836Z,9.33
2024-03-03T06:43:17.005Z,9.34
2024-03-03T06:44:17.162Z,9.36
2024-03-03T06:45:17.307Z,9.40
2024-03-03T06:46:17.532Z,9.42
2024-03-03T06:47:17.611Z,9.45
2024-03-03T06:48:17.745Z,9.48
2024-03-03T06:49:18.001Z,9.51
2024-03-03T06:50:18.003Z,9.59
2024-03-03T06:51:18.168Z,9.62
2024-03-03T06:52:18.428Z,9.64
2024-03-03T06:53:18.442Z,9.67
2024-03-03T06:54:18.599Z,9.69
2024-03-03T06:55:18.874Z,9.70
2024-03-03T06:56:18.892Z,9.73
2024-03-03T06:57:19.054Z,9.74
2024-03-03T06:58:19.357Z,9.74
2024-03-03T06:59:19.398Z,9.77
2024-03-03T07:00:19.539Z,9.81
2024-03-03T07:01:19.794Z,9.81
2024-03-03T07:02:19.808Z,9.87
2024-03-03T07:03:19.965Z,9.90
2024-03-03T07:04:20.239Z,9.95
2024-03-03T07:05:20.271Z,10.05
2024-03-03T07:06:20.405Z,10.03
2024-03-03T07:07:20.623Z,10.02
2024-03-03T07:08:20.627Z,10.02
2024-03-03T07:09:20.775Z,9.99
2024-03-03T07:10:21.095Z,10.00
2024-03-03T07:11:21.093Z,9.99
2024-03-03T07:12:21.575Z,10.00
2024-03-03T07:13:21.463Z,10.02
2024-03-03T07:14:21.408Z,10.02
2024-03-03T07:15:21.523Z,10.05
2024-03-03T07:16:21.742Z,10.07
2024-03-03T07:17:21.884Z,10.09
2024-03-03T07:18:22.006Z,10.13
2024-03-03T07:19:22.273Z,10.17
2024-03-03T07:20:22.285Z,10.18
2024-03-03T07:21:22.439Z,10.23
2024-03-03T07:22:22.693Z,10.23
2024-03-03T07:23:22.700Z,10.33
2024-03-03T07:24:22.848Z,10.42
2024-03-03T07:25:22.994Z,10.43
2024-03-03T07:26:23.139Z,10.48
2024-03-03T07:27:23.273Z,10.48
2024-03-03T07:28:23.465Z,10.49
2024-03-03T07:29:23.557Z,10.51
2024-03-03T07:30:23.785Z,10.46
2024-03-03T07:31:23.893Z,10.57
2024-03-03T07:32:24.051Z,10.65
2024-03-03T07:33:24.186Z,10.65
2024-03-03T07:34:25.338Z,10.62
2024-03-03T07:35:24.415Z,10.71
2024-03-03T07:36:24.551Z,10.80
2024-03-03T07:37:24.772Z,10.92
2024-03-03T07:38:24.819Z,11.10
2024-03-03T07:39:24.925Z,11.22
2024-03-03T07:40:25.155Z,11.22
2024-03-03T07:41:25.157Z,11.02
2024-03-03T07:42:25.378Z,11.01
2024-03-03T07:43:25.397Z,11.01
2024-03-03T07:44:26.589Z,11.07
2024-03-03T07:45:25.610Z,11.30
2024-03-03T07:46:25.772Z,11.37
2024-03-03T07:47:25.907Z,11.34
2024-03-03T07:48:26.002Z,11.18
2024-03-03T07:49:27.021Z,11.00
2024-03-03T07:50:26.219Z,11.05
2024-03-03T07:51:26.376Z,11.15
2024-03-03T07:52:26.553Z,11.05
2024-03-03T07:53:26.530Z,11.16
2024-03-03T07:54:26.652Z,11.25
2024-03-03T07:55:30.064Z,11.45
2024-03-03T07:56:26.856Z,11.53
2024-03-03T07:57:27.006Z,11.70
2024-03-03T07:58:27.182Z,11.96
2024-03-03T07:59:27.244Z,12.30
2024-03-03T08:00:27.416Z,12.45
2024-03-03T08:01:27.595Z,12.62
2024-03-03T08:02:27.597Z,12.80
2024-03-03T08:03:27.666Z,13.05
2024-03-03T08:04:27.872Z,13.23
2024-03-03T08:05:27.828Z,13.31
2024-03-03T08:06:28.372Z,13.12
2024-03-03T08:07:28.068Z,12.95
2024-03-03T08:08:28.158Z,12.95
2024-03-03T08:09:28.274Z,13.02
2024-03-03T08:10:28.432Z,13.05
2024-03-03T08:11:28.572Z,13.24
2024-03-03T08:12:28.717Z,12.83
2024-03-03T08:13:28.741Z,12.40
2024-03-03T08:14:28.824Z,12.36
2024-03-03T08:15:28.916Z,12.23
2024-03-03T08:16:29.065Z,12.14
2024-03-03T08:17:29.186Z,12.14
2024-03-03T08:18:29.363Z,12.03
2024-03-03T08:19:29.406Z,11.89
2024-03-03T08:20:29.713Z,11.81
2024-03-03T08:21:29.622Z,11.78
2024-03-03T08:22:29.728Z,11.81
2024-03-03T08:23:29.693Z,11.86
2024-03-03T08:24:29.805Z,11.89
2024-03-03T08:25:29.955Z,11.89
2024-03-03T08:26:30.100Z,11.91
2024-03-03T08:27:30.122Z,12.00
2024-03-03T08:28:30.299Z,12.05
2024-03-03T08:29:30.287Z,12.12
2024-03-03T08:30:30.423Z,12.20
2024-03-03T08:31:30.557Z,12.20
2024-03-03T08:32:30.665Z,12.10
2024-03-03T08:33:30.775Z,12.14
2024-03-03T08:34:30.995Z,12.08
2024-03-03T08:35:31.045Z,12.11
2024-03-03T08:36:31.032Z,12.12
2024-03-03T08:37:33.089Z,12.28
2024-03-03T08:38:31.223Z,12.43
2024-03-03T08:39:31.343Z,12.57
2024-03-03T08:40:31.488Z,12.61
2024-03-03T08:41:31.540Z,12.95
2024-03-03T08:42:31.661Z,13.80
2024-03-03T08:43:31.800Z,14.51
2024-03-03T08:44:31.890Z,15.00
2024-03-03T08:45:32.128Z,15.39
2024-03-03T08:46:32.063Z,15.98
2024-03-03T08:47:32.153Z,16.08
2024-03-03T08:48:32.445Z,15.67
2024-03-03T08:49:32.266Z,15.69
2024-03-03T08:50:32.302Z,15.35
2024-03-03T08:51:32.352Z,15.98
2024-03-03T08:52:32.441Z,16.39
2024-03-03T08:53:32.499Z,16.76
2024-03-03T08:54:32.545Z,16.61
2024-03-03T08:55:32.591Z,16.83
2024-03-03T08:56:32.547Z,17.10
2024-03-03T08:57:32.540Z,17.38
2024-03-03T08:58:32.566Z,17.09
2024-03-03T08:59:32.602Z,17.17
2024-03-03T09:00:32.586Z,16.82
2024-03-03T09:01:32.737Z,15.63
2024-03-03T09:02:32.674Z,15.41
2024-03-03T09:03:32.606Z,15.45
2024-03-03T09:04:32.790Z,15.62
2024-03-03T09:05:32.700Z,15.50
2024-03-03T09:06:32.788Z,15.22
2024-03-03T09:07:32.854Z,15.27
2024-03-03T09:08:32.793Z,15.43
2024-03-03T09:09:32.763Z,15.44
2024-03-03T09:10:32.790Z,15.78
2024-03-03T09:11:32.737Z,15.85
2024-03-03T09:12:32.723Z,15.63
2024-03-03T09:13:32.669Z,15.43
2024-03-03T09:14:32.600Z,15.80
2024-03-03T09:15:32.544Z,15.91
2024-03-03T09:16:32.661Z,16.37
2024-03-03T09:17:32.567Z,16.47
2024-03-03T09:18:32.686Z,16.18
2024-03-03T09:19:32.618Z,16.10
2024-03-03T09:20:32.659Z,16.87
2024-03-03T09:21:32.584Z,17.73
2024-03-03T09:22:36.563Z,17.66
2024-03-03T09:23:40.282Z,16.94
2024-03-03T09:24:32.668Z,16.89
2024-03-03T09:25:34.428Z,17.14
2024-03-03T09:26:35.345Z,17.56
2024-03-03T09:27:32.752Z,18.31
2024-03-03T09:28:32.789Z,18.30
2024-03-03T09:29:32.765Z,17.59
2024-03-03T09:30:32.674Z,16.87
2024-03-03T09:31:32.756Z,17.13
2024-03-03T09:32:32.744Z,17.34
2024-03-03T09:33:32.718Z,17.93
2024-03-03T09:34:32.687Z,18.03
2024-03-03T09:35:32.587Z,17.23
2024-03-03T09:36:32.636Z,18.12
2024-03-03T09:37:32.747Z,17.44
2024-03-03T09:38:32.623Z,16.98
2024-03-03T09:39:32.517Z,17.30
2024-03-03T09:40:32.572Z,17.75
2024-03-03T09:41:32.586Z,17.75
2024-03-03T09:42:32.612Z,17.24
2024-03-03T09:43:32.699Z,16.86
2024-03-03T09:44:32.608Z,17.34
2024-03-03T09:45:32.528Z,17.97
2024-03-03T09:46:32.566Z,18.42
2024-03-03T09:47:32.619Z,17.75
2024-03-03T09:48:32.663Z,16.95
2024-03-03T09:49:32.551Z,16.97
2024-03-03T09:50:32.568Z,17.32
2024-03-03T09:51:32.601Z,17.46
2024-03-03T09:52:32.654Z,17.39
2024-03-03T09:53:32.565Z,17.07
2024-03-03T09:54:32.636Z,16.69
2024-03-03T09:55:32.598Z,16.95
2024-03-03T09:56:32.498Z,18.02
2024-03-03T09:57:32.406Z,18.43
2024-03-03T09:58:32.450Z,18.19
2024-03-03T09:59:32.461Z,18.33
2024-03-03T10:00:32.503Z,18.66
2024-03-03T10:01:32.567Z,18.60
2024-03-03T10:02:32.449Z,18.85
2024-03-03T10:03:32.452Z,18.49
2024-03-03T10:04:32.529Z,18.49
2024-03-03T10:05:32.472Z,18.27
2024-03-03T10:06:32.466Z,18.39
2024-03-03T10:07:32.530Z,18.96
2024-03-03T10:08:32.424Z,19.39
2024-03-03T10:09:32.345Z,19.34
2024-03-03T10:10:32.419Z,18.82
2024-03-03T10:11:32.273Z,19.45
2024-03-03T10:12:32.146Z,19.62
2024-03-03T10:13:32.152Z,19.05
2024-03-03T10:14:32.168Z,18.33
2024-03-03T10:15:32.087Z,17.30
2024-03-03T10:16:32.101Z,17.52
2024-03-03T10:17:32.102Z,17.86
2024-03-03T10:18:32.135Z,18.23
2024-03-03T10:19:32.132Z,18.70
2024-03-03T10:20:32.123Z,18.85
2024-03-03T10:21:32.030Z,18.66
2024-03-03T10:22:32.066Z,18.57
2024-03-03T10:23:32.057Z,18.53
2024-03-03T10:24:32.072Z,18.55
2024-03-03T10:25:32.193Z,18.82
2024-03-03T10:26:32.092Z,18.67
2024-03-03T10:27:32.088Z,18.97
2024-03-03T10:28:32.106Z,18.03
2024-03-03T10:29:34.475Z,16.92
2024-03-03T10:30:32.158Z,16.34
2024-03-03T10:31:32.218Z,15.62
2024-03-03T10:32:32.319Z,15.41
2024-03-03T10:33:32.186Z,15.27
2024-03-03T10:34:32.344Z,15.22
2024-03-03T10:35:32.264Z,15.22
2024-03-03T10:36:32.331Z,15.11
2024-03-03T10:37:32.315Z,15.08
2024-03-03T10:38:32.381Z,14.79
2024-03-03T10:39:32.331Z,14.49
2024-03-03T10:40:32.425Z,14.73
2024-03-03T10:41:32.384Z,14.89
2024-03-03T10:42:32.478Z,14.96
2024-03-03T10:43:32.491Z,15.04
2024-03-03T10:44:32.557Z,15.14
2024-03-03T10:45:32.572Z,15.02
2024-03-03T10:46:32.627Z,15.08
2024-03-03T10:47:32.612Z,15.02
2024-03-03T10:48:32.674Z,15.07
2024-03-03T10:49:32.749Z,15.05
2024-03-03T10:50:32.792Z,15.02
2024-03-03T10:51:32.871Z,14.92
2024-03-03T10:52:32.970Z,14.93
2024-03-03T10:53:33.105Z,14.79
2024-03-03T10:54:33.112Z,14.71
2024-03-03T10:55:33.230Z,14.79
2024-03-03T10:56:33.205Z,15.14
2024-03-03T10:57:33.276Z,15.52
2024-03-03T10:58:33.373Z,15.92
2024-03-03T10:59:33.443Z,16.41
2024-03-03T11:00:33.571Z,16.13
2024-03-03T11:01:33.697Z,16.09
2024-03-03T11:02:33.676Z,15.76
2024-03-03T11:03:33.733Z,15.66
2024-03-03T11:04:34.046Z,16.36
2024-03-03T11:05:33.899Z,17.35
2024-03-03T11:06:33.968Z,17.50
2024-03-03T11:07:34.075Z,16.76
2024-03-03T11:08:34.121Z,16.58
2024-03-03T11:09:34.155Z,16.77
2024-03-03T11:10:34.301Z,16.65
2024-03-03T11:11:34.826Z,16.55
2024-03-03T11:12:34.371Z,16.31
2024-03-03T11:13:34.428Z,16.21
2024-03-03T11:14:34.477Z,16.69
2024-03-03T11:15:34.502Z,16.68
2024-03-03T11:16:34.644Z,17.27
2024-03-03T11:17:34.682Z,18.57
2024-03-03T11:18:34.702Z,18.82
2024-03-03T11:19:34.732Z,19.47
2024-03-03T11:20:34.765Z,19.47
2024-03-03T11:21:34.770Z,18.66
2024-03-03T11:22:34.861Z,17.95
2024-03-03T11:23:34.846Z,16.64
2024-03-03T11:24:34.937Z,17.01
2024-03-03T11:25:34.960Z,17.09
2024-03-03T11:26:34.996Z,16.66
2024-03-03T11:27:35.080Z,17.17
2024-03-03T11:28:35.319Z,17.98
2024-03-03T11:29:35.268Z,18.16
2024-03-03T11:30:35.239Z,17.60
2024-03-03T11:31:35.234Z,17.71
2024-03-03T11:32:35.316Z,18.36
2024-03-03T11:33:35.215Z,19.11
2024-03-03T11:34:35.248Z,18.43
2024-03-03T11:35:35.224Z,17.39
2024-03-03T11:36:35.184Z,16.80
2024-03-03T11:37:35.378Z,16.41
2024-03-03T11:38:35.325Z,16.24
2024-03-03T11:39:35.426Z,16.02
2024-03-03T11:40:35.428Z,16.29
2024-03-03T11:41:35.398Z,17.04
2024-03-03T11:42:35.518Z,17.69
2024-03-03T11:43:35.558Z,18.06
2024-03-03T11:44:35.612Z,18.23
2024-03-03T11:45:35.610Z,18.45
2024-03-03T11:46:35.686Z,18.91
2024-03-03T11:47:35.756Z,19.00
2024-03-03T11:48:35.714Z,18.18
2024-03-03T11:49:35.806Z,17.71
2024-03-03T11:50:35.731Z,17.80
2024-03-03T11:51:35.695Z,17.94
2024-03-03T11:52:35.660Z,17.34
2024-03-03T11:53:35.631Z,17.60
2024-03-03T11:54:35.636Z,18.43
2024-03-03T11:55:35.653Z,18.43
2024-03-03T11:56:35.692Z,18.39
2024-03-03T11:57:35.621Z,17.59
2024-03-03T11:58:35.708Z,16.89
2024-03-03T11:59:35.649Z,16.46
2024-03-03T12:00:35.721Z,16.61
2024-03-03T12:01:35.801Z,16.77
2024-03-03T12:02:38.461Z,16.73
2024-03-03T12:03:35.786Z,16.62
2024-03-03T12:04:35.859Z,16.12
2024-03-03T12:05:35.941Z,15.84
2024-03-03T12:06:36.023Z,15.76
2024-03-03T12:07:36.076Z,15.69
2024-03-03T12:08:36.042Z,15.55
2024-03-03T12:09:36.046Z,15.35
2024-03-03T12:10:36.123Z,15.29
2024-03-03T12:11:36.104Z,15.27
2024-03-03T12:12:36.146Z,15.19
2024-03-03T12:13:36.212Z,15.18
2024-03-03T12:14:36.205Z,15.17
2024-03-03T12:15:36.272Z,15.27
2024-03-03T12:16:36.319Z,15.35
2024-03-03T12:17:36.391Z,15.36
2024-03-03T12:18:36.466Z,15.33
2024-03-03T12:19:36.627Z,15.37
2024-03-03T12:20:36.590Z,15.39
2024-03-03T12:21:36.727Z,15.39
2024-03-03T12:22:36.717Z,15.41
2024-03-03T12:23:36.789Z,15.35
2024-03-03T12:24:36.864Z,15.33
2024-03-03T12:25:36.959Z,15.35
2024-03-03T12:26:37.020Z,15.41
2024-03-03T12:27:37.103Z,15.41
2024-03-03T12:28:37.294Z,15.36
2024-03-03T12:29:37.290Z,15.27
2024-03-03T12:30:37.342Z,15.27
2024-03-03T12:31:37.469Z,15.33
2024-03-03T12:32:37.568Z,15.37
2024-03-03T12:33:37.794Z,15.39
2024-03-03T12:34:37.705Z,15.45
2024-03-03T12:35:37.951Z,15.44
2024-03-03T12:36:37.802Z,15.41
2024-03-03T12:37:37.928Z,15.39
2024-03-03T12:38:38.035Z,15.37
2024-03-03T12:39:38.132Z,15.48
2024-03-03T12:40:38.320Z,15.60
2024-03-03T12:41:38.357Z,15.51
2024-03-03T12:42:38.493Z,15.48
2024-03-03T12:43:38.652Z,15.51
2024-03-03T12:44:38.667Z,15.60
2024-03-03T12:45:38.763Z,15.59
2024-03-03T12:46:38.962Z,15.65
2024-03-03T12:47:39.068Z,15.69
2024-03-03T12:48:39.021Z,15.67
2024-03-03T12:49:39.146Z,15.72
2024-03-03T12:50:39.249Z,15.59
2024-03-03T12:51:39.354Z,15.52
2024-03-03T12:52:39.440Z,15.50
2024-03-03T12:53:41.229Z,15.41
2024-03-03T12:54:39.681Z,15.36
2024-03-03T12:55:39.816Z,15.26
2024-03-03T12:56:39.933Z,15.26
2024-03-03T12:57:40.040Z,15.32
2024-03-03T12:58:40.169Z,15.32
2024-03-03T12:59:40.271Z,15.27
2024-03-03T13:00:40.413Z,15.32
2024-03-03T13:01:40.629Z,15.35
2024-03-03T13:02:40.646Z,15.27
2024-03-03T13:03:43.920Z,15.33
2024-03-03T13:04:40.780Z,15.48
2024-03-03T13:05:40.861Z,15.60
2024-03-03T13:06:41.049Z,15.65
2024-03-03T13:07:41.109Z,15.63